sensor_id;sensor_type;location;lat;lon;timestamp;P1;durP1;ratioP1;P2;durP2;ratioP2
3811;SDS011;1921;49.368;11.068;2022-08-01T00:01:56;58.50;;;52.10;;
3811;SDS011;1921;49.368;11.068;2022-08-01T00:04:21;59.40;;;52.20;;
3811;SDS011;1921;49.368;11.068;2022-08-01T00:06:47;59.40;;;52.93;;
3811;SDS011;1921;49.368;11.068;2022-08-01T00:09:13;60.23;;;52.70;;
3811;SDS011;1921;49.368;11.068;2022-08-01T00:11:38;60.03;;;52.80;;
3811;SDS011;1921;49.368;11.068;2022-08-01T00:14:04;59.90;;;53.30;;
3811;SDS011;1921;49.368;11.068;2022-08-01T00:16:30;59.60;;;52.90;;
3811;SDS011;1921;49.368;11.068;2022-08-01T00:18:56;59.40;;;53.00;;
3811;SDS011;1921;49.368;11.068;2022-08-01T00:21:21;58.90;;;52.50;;
3811;SDS011;1921;49.368;11.068;2022-08-01T00:23:47;62.00;;;52.27;;
3811;SDS011;1921;49.368;11.068;2022-08-01T00:26:13;59.17;;;52.60;;
3811;SDS011;1921;49.368;11.068;2022-08-01T00:28:39;60.33;;;52.50;;
3811;SDS011;1921;49.368;11.068;2022-08-01T00:31:06;59.53;;;52.80;;
3811;SDS011;1921;49.368;11.068;2022-08-01T00:33:32;59.50;;;53.10;;
3811;SDS011;1921;49.368;11.068;2022-08-01T00:35:58;59.67;;;53.20;;
3811;SDS011;1921;49.368;11.068;2022-08-01T00:38:24;59.60;;;53.10;;
3811;SDS011;1921;49.368;11.068;2022-08-01T00:40:50;62.57;;;52.60;;
3811;SDS011;1921;49.368;11.068;2022-08-01T00:43:15;59.67;;;53.17;;
3811;SDS011;1921;49.368;11.068;2022-08-01T00:45:41;59.57;;;53.17;;
3811;SDS011;1921;49.368;11.068;2022-08-01T00:48:07;59.80;;;53.10;;
3811;SDS011;1921;49.368;11.068;2022-08-01T00:50:33;59.37;;;52.90;;
3811;SDS011;1921;49.368;11.068;2022-08-01T00:52:59;61.33;;;53.50;;
3811;SDS011;1921;49.368;11.068;2022-08-01T00:55:26;59.00;;;52.63;;
3811;SDS011;1921;49.368;11.068;2022-08-01T00:57:53;58.93;;;52.57;;
3811;SDS011;1921;49.368;11.068;2022-08-01T01:00:20;60.70;;;53.00;;
3811;SDS011;1921;49.368;11.068;2022-08-01T01:02:47;60.30;;;52.30;;
3811;SDS011;1921;49.368;11.068;2022-08-01T01:05:13;58.40;;;52.10;;
3811;SDS011;1921;49.368;11.068;2022-08-01T01:07:44;59.03;;;52.60;;
3811;SDS011;1921;49.368;11.068;2022-08-01T01:10:32;59.03;;;52.67;;
3811;SDS011;1921;49.368;11.068;2022-08-01T01:13:26;59.03;;;52.60;;
3811;SDS011;1921;49.368;11.068;2022-08-01T01:16:14;65.17;;;52.63;;
3811;SDS011;1921;49.368;11.068;2022-08-01T01:18:46;58.93;;;52.53;;
3811;SDS011;1921;49.368;11.068;2022-08-01T01:23:54;58.93;;;52.63;;
3811;SDS011;1921;49.368;11.068;2022-08-01T01:29:38;58.40;;;52.10;;
3811;SDS011;1921;49.368;11.068;2022-08-01T01:34:44;61.07;;;52.57;;
3811;SDS011;1921;49.368;11.068;2022-08-01T01:37:14;59.33;;;53.03;;
3811;SDS011;1921;49.368;11.068;2022-08-01T01:39:46;59.40;;;53.00;;
3811;SDS011;1921;49.368;11.068;2022-08-01T01:42:16;58.70;;;52.40;;
3811;SDS011;1921;49.368;11.068;2022-08-01T01:44:45;59.00;;;52.60;;
3811;SDS011;1921;49.368;11.068;2022-08-01T01:47:12;58.87;;;52.57;;
3811;SDS011;1921;49.368;11.068;2022-08-01T01:49:39;62.10;;;53.37;;
3811;SDS011;1921;49.368;11.068;2022-08-01T01:52:07;60.87;;;52.00;;
3811;SDS011;1921;49.368;11.068;2022-08-01T01:54:39;59.33;;;52.93;;
3811;SDS011;1921;49.368;11.068;2022-08-01T01:57:09;59.00;;;52.60;;
3811;SDS011;1921;49.368;11.068;2022-08-01T01:59:37;59.27;;;52.87;;
3811;SDS011;1921;49.368;11.068;2022-08-01T02:02:04;59.17;;;52.87;;
3811;SDS011;1921;49.368;11.068;2022-08-01T02:04:32;59.10;;;52.70;;
3811;SDS011;1921;49.368;11.068;2022-08-01T02:07:02;58.93;;;52.63;;
3811;SDS011;1921;49.368;11.068;2022-08-01T02:09:30;59.77;;;53.37;;
3811;SDS011;1921;49.368;11.068;2022-08-01T02:11:59;59.00;;;52.70;;
3811;SDS011;1921;49.368;11.068;2022-08-01T02:14:26;58.93;;;52.53;;
3811;SDS011;1921;49.368;11.068;2022-08-01T02:16:54;59.40;;;53.00;;
3811;SDS011;1921;49.368;11.068;2022-08-01T02:19:22;59.33;;;52.93;;
3811;SDS011;1921;49.368;11.068;2022-08-01T02:21:55;62.33;;;52.70;;
3811;SDS011;1921;49.368;11.068;2022-08-01T02:24:46;58.63;;;52.23;;
3811;SDS011;1921;49.368;11.068;2022-08-01T02:27:21;62.07;;;52.83;;
3811;SDS011;1921;49.368;11.068;2022-08-01T02:29:54;59.10;;;52.63;;
3811;SDS011;1921;49.368;11.068;2022-08-01T02:35:09;58.23;;;51.73;;
3811;SDS011;1921;49.368;11.068;2022-08-01T02:37:43;58.17;;;51.87;;
3811;SDS011;1921;49.368;11.068;2022-08-01T02:40:10;59.90;;;53.07;;
3811;SDS011;1921;49.368;11.068;2022-08-01T02:42:38;62.20;;;52.53;;
3811;SDS011;1921;49.368;11.068;2022-08-01T02:45:18;58.27;;;51.87;;
3811;SDS011;1921;49.368;11.068;2022-08-01T02:47:47;58.77;;;52.47;;
3811;SDS011;1921;49.368;11.068;2022-08-01T02:50:14;60.53;;;51.83;;
3811;SDS011;1921;49.368;11.068;2022-08-01T02:52:43;59.03;;;52.63;;
3811;SDS011;1921;49.368;11.068;2022-08-01T02:55:15;58.67;;;52.37;;
3811;SDS011;1921;49.368;11.068;2022-08-01T02:57:44;58.67;;;52.30;;
3811;SDS011;1921;49.368;11.068;2022-08-01T03:00:13;59.80;;;53.30;;
3811;SDS011;1921;49.368;11.068;2022-08-01T03:02:40;58.47;;;52.27;;
3811;SDS011;1921;49.368;11.068;2022-08-01T03:05:08;59.10;;;52.80;;
3811;SDS011;1921;49.368;11.068;2022-08-01T03:07:37;58.77;;;52.47;;
3811;SDS011;1921;49.368;11.068;2022-08-01T03:10:05;58.40;;;52.10;;
3811;SDS011;1921;49.368;11.068;2022-08-01T03:12:33;59.13;;;52.67;;
3811;SDS011;1921;49.368;11.068;2022-08-01T03:15:00;59.07;;;52.67;;
3811;SDS011;1921;49.368;11.068;2022-08-01T03:17:29;58.50;;;52.23;;
3811;SDS011;1921;49.368;11.068;2022-08-01T03:19:57;59.30;;;52.97;;
3811;SDS011;1921;49.368;11.068;2022-08-01T03:22:27;58.70;;;52.30;;
3811;SDS011;1921;49.368;11.068;2022-08-01T03:24:56;58.67;;;52.33;;
3811;SDS011;1921;49.368;11.068;2022-08-01T03:27:24;58.47;;;52.17;;
3811;SDS011;1921;49.368;11.068;2022-08-01T03:29:51;59.33;;;52.40;;
3811;SDS011;1921;49.368;11.068;2022-08-01T03:32:19;60.17;;;52.57;;
3811;SDS011;1921;49.368;11.068;2022-08-01T03:34:47;58.90;;;52.57;;
3811;SDS011;1921;49.368;11.068;2022-08-01T03:37:14;58.90;;;52.70;;
3811;SDS011;1921;49.368;11.068;2022-08-01T03:40:00;58.83;;;52.53;;
3811;SDS011;1921;49.368;11.068;2022-08-01T03:42:46;59.33;;;52.83;;
3811;SDS011;1921;49.368;11.068;2022-08-01T03:45:29;59.10;;;52.80;;
3811;SDS011;1921;49.368;11.068;2022-08-01T03:48:00;59.50;;;53.00;;
3811;SDS011;1921;49.368;11.068;2022-08-01T03:50:33;59.33;;;52.93;;
3811;SDS011;1921;49.368;11.068;2022-08-01T03:53:02;60.00;;;53.60;;
3811;SDS011;1921;49.368;11.068;2022-08-01T03:55:30;59.07;;;52.67;;
3811;SDS011;1921;49.368;11.068;2022-08-01T03:57:57;59.37;;;53.00;;
3811;SDS011;1921;49.368;11.068;2022-08-01T04:00:25;58.77;;;52.47;;
3811;SDS011;1921;49.368;11.068;2022-08-01T04:02:52;60.60;;;52.27;;
3811;SDS011;1921;49.368;11.068;2022-08-01T04:05:18;58.77;;;52.37;;
3811;SDS011;1921;49.368;11.068;2022-08-01T04:07:45;59.17;;;52.77;;
3811;SDS011;1921;49.368;11.068;2022-08-01T04:10:20;58.00;;;51.80;;
3811;SDS011;1921;49.368;11.068;2022-08-01T04:12:50;59.80;;;53.30;;
3811;SDS011;1921;49.368;11.068;2022-08-01T04:15:16;60.00;;;53.50;;
3811;SDS011;1921;49.368;11.068;2022-08-01T04:17:42;60.03;;;53.43;;
3811;SDS011;1921;49.368;11.068;2022-08-01T04:20:09;59.60;;;52.87;;
3811;SDS011;1921;49.368;11.068;2022-08-01T04:22:36;59.40;;;52.97;;
3811;SDS011;1921;49.368;11.068;2022-08-01T04:25:02;59.20;;;52.70;;
3811;SDS011;1921;49.368;11.068;2022-08-01T04:27:36;60.60;;;53.87;;
3811;SDS011;1921;49.368;11.068;2022-08-01T04:30:05;60.20;;;53.60;;
3811;SDS011;1921;49.368;11.068;2022-08-01T04:32:33;61.20;;;53.53;;
3811;SDS011;1921;49.368;11.068;2022-08-01T04:35:04;61.07;;;53.80;;
3811;SDS011;1921;49.368;11.068;2022-08-01T04:37:34;60.23;;;52.43;;
3811;SDS011;1921;49.368;11.068;2022-08-01T04:40:02;59.17;;;52.77;;
3811;SDS011;1921;49.368;11.068;2022-08-01T04:42:30;59.90;;;53.33;;
3811;SDS011;1921;49.368;11.068;2022-08-01T04:44:58;60.33;;;53.57;;
3811;SDS011;1921;49.368;11.068;2022-08-01T04:47:24;64.17;;;53.40;;
3811;SDS011;1921;49.368;11.068;2022-08-01T04:49:52;60.27;;;53.67;;
3811;SDS011;1921;49.368;11.068;2022-08-01T04:52:18;60.40;;;52.33;;
3811;SDS011;1921;49.368;11.068;2022-08-01T04:54:44;60.20;;;53.10;;
3811;SDS011;1921;49.368;11.068;2022-08-01T04:57:11;59.57;;;53.07;;
3811;SDS011;1921;49.368;11.068;2022-08-01T04:59:37;61.20;;;53.17;;
3811;SDS011;1921;49.368;11.068;2022-08-01T05:02:17;59.53;;;52.87;;
3811;SDS011;1921;49.368;11.068;2022-08-01T05:04:44;60.73;;;53.30;;
3811;SDS011;1921;49.368;11.068;2022-08-01T05:07:11;62.00;;;52.60;;
3811;SDS011;1921;49.368;11.068;2022-08-01T05:09:38;59.53;;;52.30;;
3811;SDS011;1921;49.368;11.068;2022-08-01T05:12:08;61.63;;;53.60;;
3811;SDS011;1921;49.368;11.068;2022-08-01T05:14:35;59.10;;;52.60;;
3811;SDS011;1921;49.368;11.068;2022-08-01T05:17:02;62.77;;;53.17;;
3811;SDS011;1921;49.368;11.068;2022-08-01T05:19:31;61.50;;;52.10;;
3811;SDS011;1921;49.368;11.068;2022-08-01T05:22:03;60.17;;;52.27;;
3811;SDS011;1921;49.368;11.068;2022-08-01T05:24:32;59.00;;;52.43;;
3811;SDS011;1921;49.368;11.068;2022-08-01T05:26:59;60.37;;;52.63;;
3811;SDS011;1921;49.368;11.068;2022-08-01T05:29:26;60.00;;;52.40;;
3811;SDS011;1921;49.368;11.068;2022-08-01T05:31:52;61.57;;;52.70;;
3811;SDS011;1921;49.368;11.068;2022-08-01T05:34:19;59.10;;;51.97;;
3811;SDS011;1921;49.368;11.068;2022-08-01T05:36:45;59.63;;;52.40;;
3811;SDS011;1921;49.368;11.068;2022-08-01T05:39:11;59.27;;;52.40;;
3811;SDS011;1921;49.368;11.068;2022-08-01T05:41:38;59.20;;;52.30;;
3811;SDS011;1921;49.368;11.068;2022-08-01T05:44:04;65.03;;;52.63;;
3811;SDS011;1921;49.368;11.068;2022-08-01T05:46:31;61.87;;;52.60;;
3811;SDS011;1921;49.368;11.068;2022-08-01T05:48:57;61.53;;;52.93;;
3811;SDS011;1921;49.368;11.068;2022-08-01T05:51:24;60.83;;;52.20;;
3811;SDS011;1921;49.368;11.068;2022-08-01T05:53:50;60.73;;;52.40;;
3811;SDS011;1921;49.368;11.068;2022-08-01T05:56:16;59.50;;;51.90;;
3811;SDS011;1921;49.368;11.068;2022-08-01T05:58:43;62.50;;;52.67;;
3811;SDS011;1921;49.368;11.068;2022-08-01T06:01:08;62.20;;;52.90;;
3811;SDS011;1921;49.368;11.068;2022-08-01T06:03:35;59.07;;;51.60;;
3811;SDS011;1921;49.368;11.068;2022-08-01T06:06:01;63.90;;;52.30;;
3811;SDS011;1921;49.368;11.068;2022-08-01T06:08:27;60.30;;;52.50;;
3811;SDS011;1921;49.368;11.068;2022-08-01T06:10:53;60.83;;;52.50;;
3811;SDS011;1921;49.368;11.068;2022-08-01T06:13:18;61.20;;;52.07;;
3811;SDS011;1921;49.368;11.068;2022-08-01T06:15:44;60.60;;;52.20;;
3811;SDS011;1921;49.368;11.068;2022-08-01T06:18:11;61.53;;;52.87;;
3811;SDS011;1921;49.368;11.068;2022-08-01T06:20:38;61.80;;;52.40;;
3811;SDS011;1921;49.368;11.068;2022-08-01T06:23:04;62.20;;;52.67;;
3811;SDS011;1921;49.368;11.068;2022-08-01T06:25:30;59.87;;;52.03;;
3811;SDS011;1921;49.368;11.068;2022-08-01T06:27:56;63.97;;;53.07;;
3811;SDS011;1921;49.368;11.068;2022-08-01T06:30:22;63.27;;;52.57;;
3811;SDS011;1921;49.368;11.068;2022-08-01T06:32:48;63.33;;;52.90;;
3811;SDS011;1921;49.368;11.068;2022-08-01T06:35:14;62.80;;;53.10;;
3811;SDS011;1921;49.368;11.068;2022-08-01T06:37:40;62.03;;;53.10;;
3811;SDS011;1921;49.368;11.068;2022-08-01T06:40:07;67.20;;;52.80;;
3811;SDS011;1921;49.368;11.068;2022-08-01T06:42:35;62.03;;;53.07;;
3811;SDS011;1921;49.368;11.068;2022-08-01T06:45:05;61.60;;;52.73;;
3811;SDS011;1921;49.368;11.068;2022-08-01T06:47:33;61.60;;;52.63;;
3811;SDS011;1921;49.368;11.068;2022-08-01T06:49:59;62.63;;;53.67;;
3811;SDS011;1921;49.368;11.068;2022-08-01T06:52:25;63.40;;;53.30;;
3811;SDS011;1921;49.368;11.068;2022-08-01T06:54:51;61.80;;;53.00;;
3811;SDS011;1921;49.368;11.068;2022-08-01T06:57:17;62.53;;;53.07;;
3811;SDS011;1921;49.368;11.068;2022-08-01T06:59:42;62.80;;;53.40;;
3811;SDS011;1921;49.368;11.068;2022-08-01T07:02:08;62.30;;;52.87;;
3811;SDS011;1921;49.368;11.068;2022-08-01T07:04:34;71.70;;;53.07;;
3811;SDS011;1921;49.368;11.068;2022-08-01T07:07:03;61.73;;;52.90;;
3811;SDS011;1921;49.368;11.068;2022-08-01T07:09:29;61.53;;;52.90;;
3811;SDS011;1921;49.368;11.068;2022-08-01T07:11:55;61.80;;;52.57;;
3811;SDS011;1921;49.368;11.068;2022-08-01T07:14:21;61.77;;;52.23;;
3811;SDS011;1921;49.368;11.068;2022-08-01T07:16:48;64.03;;;52.50;;
3811;SDS011;1921;49.368;11.068;2022-08-01T07:19:14;62.70;;;52.60;;
3811;SDS011;1921;49.368;11.068;2022-08-01T07:21:40;61.67;;;52.70;;
3811;SDS011;1921;49.368;11.068;2022-08-01T07:24:09;60.90;;;52.60;;
3811;SDS011;1921;49.368;11.068;2022-08-01T07:26:37;60.70;;;52.57;;
3811;SDS011;1921;49.368;11.068;2022-08-01T07:29:08;60.90;;;52.50;;
3811;SDS011;1921;49.368;11.068;2022-08-01T07:31:34;62.37;;;53.20;;
3811;SDS011;1921;49.368;11.068;2022-08-01T07:33:59;64.37;;;53.07;;
3811;SDS011;1921;49.368;11.068;2022-08-01T07:36:25;63.67;;;53.10;;
3811;SDS011;1921;49.368;11.068;2022-08-01T07:38:51;61.43;;;52.50;;
3811;SDS011;1921;49.368;11.068;2022-08-01T07:41:17;63.10;;;52.60;;
3811;SDS011;1921;49.368;11.068;2022-08-01T07:43:42;61.47;;;52.43;;
3811;SDS011;1921;49.368;11.068;2022-08-01T07:46:08;63.47;;;52.60;;
3811;SDS011;1921;49.368;11.068;2022-08-01T07:48:34;66.27;;;52.03;;
3811;SDS011;1921;49.368;11.068;2022-08-01T07:51:01;62.47;;;52.60;;
3811;SDS011;1921;49.368;11.068;2022-08-01T07:53:32;66.80;;;53.13;;
3811;SDS011;1921;49.368;11.068;2022-08-01T07:55:58;62.83;;;53.00;;
3811;SDS011;1921;49.368;11.068;2022-08-01T07:58:24;68.83;;;53.30;;
3811;SDS011;1921;49.368;11.068;2022-08-01T08:00:50;63.77;;;53.47;;
3811;SDS011;1921;49.368;11.068;2022-08-01T08:03:16;65.60;;;53.30;;
3811;SDS011;1921;49.368;11.068;2022-08-01T08:05:42;63.23;;;53.00;;
3811;SDS011;1921;49.368;11.068;2022-08-01T08:08:08;61.83;;;52.40;;
3811;SDS011;1921;49.368;11.068;2022-08-01T08:10:35;65.23;;;52.80;;
3811;SDS011;1921;49.368;11.068;2022-08-01T08:13:01;64.60;;;53.00;;
3811;SDS011;1921;49.368;11.068;2022-08-01T08:15:28;63.80;;;52.97;;
3811;SDS011;1921;49.368;11.068;2022-08-01T08:17:54;63.53;;;52.37;;
3811;SDS011;1921;49.368;11.068;2022-08-01T08:20:20;69.07;;;53.50;;
3811;SDS011;1921;49.368;11.068;2022-08-01T08:22:50;61.73;;;52.63;;
3811;SDS011;1921;49.368;11.068;2022-08-01T08:25:16;64.23;;;53.17;;
3811;SDS011;1921;49.368;11.068;2022-08-01T08:27:44;63.90;;;53.07;;
3811;SDS011;1921;49.368;11.068;2022-08-01T08:30:11;63.97;;;53.60;;
3811;SDS011;1921;49.368;11.068;2022-08-01T08:32:37;64.33;;;53.47;;
3811;SDS011;1921;49.368;11.068;2022-08-01T08:35:04;65.10;;;53.20;;
3811;SDS011;1921;49.368;11.068;2022-08-01T08:37:31;63.57;;;53.23;;
3811;SDS011;1921;49.368;11.068;2022-08-01T08:39:57;62.57;;;52.83;;
3811;SDS011;1921;49.368;11.068;2022-08-01T08:42:23;62.57;;;52.87;;
3811;SDS011;1921;49.368;11.068;2022-08-01T08:44:49;62.50;;;52.47;;
3811;SDS011;1921;49.368;11.068;2022-08-01T08:47:15;61.70;;;52.47;;
3811;SDS011;1921;49.368;11.068;2022-08-01T08:49:42;63.40;;;53.10;;
3811;SDS011;1921;49.368;11.068;2022-08-01T08:52:09;88.10;;;53.80;;
3811;SDS011;1921;49.368;11.068;2022-08-01T08:54:37;62.87;;;52.87;;
3811;SDS011;1921;49.368;11.068;2022-08-01T08:57:05;63.80;;;53.50;;
3811;SDS011;1921;49.368;11.068;2022-08-01T08:59:32;63.57;;;53.30;;
3811;SDS011;1921;49.368;11.068;2022-08-01T09:01:58;62.37;;;52.10;;
3811;SDS011;1921;49.368;11.068;2022-08-01T09:04:24;63.20;;;53.07;;
3811;SDS011;1921;49.368;11.068;2022-08-01T09:06:51;66.83;;;53.30;;
3811;SDS011;1921;49.368;11.068;2022-08-01T09:09:18;64.10;;;53.57;;
3811;SDS011;1921;49.368;11.068;2022-08-01T09:11:44;62.57;;;52.80;;
3811;SDS011;1921;49.368;11.068;2022-08-01T09:14:11;63.10;;;53.23;;
3811;SDS011;1921;49.368;11.068;2022-08-01T09:16:58;65.70;;;53.50;;
3811;SDS011;1921;49.368;11.068;2022-08-01T09:19:34;64.87;;;53.20;;
3811;SDS011;1921;49.368;11.068;2022-08-01T09:22:09;66.43;;;52.73;;
3811;SDS011;1921;49.368;11.068;2022-08-01T09:24:38;63.67;;;53.00;;
3811;SDS011;1921;49.368;11.068;2022-08-01T09:27:19;62.90;;;53.00;;
3811;SDS011;1921;49.368;11.068;2022-08-01T09:29:48;61.37;;;52.60;;
3811;SDS011;1921;49.368;11.068;2022-08-01T09:32:22;62.30;;;52.80;;
3811;SDS011;1921;49.368;11.068;2022-08-01T09:34:48;62.50;;;52.63;;
3811;SDS011;1921;49.368;11.068;2022-08-01T09:37:14;61.70;;;52.40;;
3811;SDS011;1921;49.368;11.068;2022-08-01T09:39:43;62.50;;;52.83;;
3811;SDS011;1921;49.368;11.068;2022-08-01T09:42:23;61.67;;;52.50;;
3811;SDS011;1921;49.368;11.068;2022-08-01T09:44:51;62.60;;;52.60;;
3811;SDS011;1921;49.368;11.068;2022-08-01T09:47:18;61.57;;;52.20;;
3811;SDS011;1921;49.368;11.068;2022-08-01T09:49:46;62.17;;;52.53;;
3811;SDS011;1921;49.368;11.068;2022-08-01T09:52:21;62.23;;;52.50;;
3811;SDS011;1921;49.368;11.068;2022-08-01T09:57:24;62.80;;;53.20;;
3811;SDS011;1921;49.368;11.068;2022-08-01T09:59:52;62.20;;;52.60;;
3811;SDS011;1921;49.368;11.068;2022-08-01T10:02:31;62.40;;;52.60;;
3811;SDS011;1921;49.368;11.068;2022-08-01T10:05:00;65.47;;;53.27;;
3811;SDS011;1921;49.368;11.068;2022-08-01T10:07:29;65.63;;;53.60;;
3811;SDS011;1921;49.368;11.068;2022-08-01T10:09:55;64.53;;;53.57;;
3811;SDS011;1921;49.368;11.068;2022-08-01T10:12:21;64.97;;;53.40;;
3811;SDS011;1921;49.368;11.068;2022-08-01T10:14:51;65.00;;;53.77;;
3811;SDS011;1921;49.368;11.068;2022-08-01T10:17:20;65.67;;;53.67;;
3811;SDS011;1921;49.368;11.068;2022-08-01T10:19:49;64.93;;;54.07;;
3811;SDS011;1921;49.368;11.068;2022-08-01T10:22:19;73.50;;;54.60;;
3811;SDS011;1921;49.368;11.068;2022-08-01T10:24:49;65.80;;;53.90;;
3811;SDS011;1921;49.368;11.068;2022-08-01T10:27:19;66.57;;;54.30;;
3811;SDS011;1921;49.368;11.068;2022-08-01T10:29:47;64.70;;;53.90;;
3811;SDS011;1921;49.368;11.068;2022-08-01T10:32:20;64.30;;;53.80;;
3811;SDS011;1921;49.368;11.068;2022-08-01T10:34:46;66.80;;;54.00;;
3811;SDS011;1921;49.368;11.068;2022-08-01T10:37:13;65.20;;;53.93;;
3811;SDS011;1921;49.368;11.068;2022-08-01T10:39:40;65.17;;;53.77;;
3811;SDS011;1921;49.368;11.068;2022-08-01T10:42:06;64.93;;;53.80;;
3811;SDS011;1921;49.368;11.068;2022-08-01T10:44:36;65.77;;;54.40;;
3811;SDS011;1921;49.368;11.068;2022-08-01T10:47:10;65.07;;;54.00;;
3811;SDS011;1921;49.368;11.068;2022-08-01T10:49:45;65.40;;;54.00;;
3811;SDS011;1921;49.368;11.068;2022-08-01T10:52:18;65.10;;;53.93;;
3811;SDS011;1921;49.368;11.068;2022-08-01T10:54:45;64.80;;;53.50;;
3811;SDS011;1921;49.368;11.068;2022-08-01T10:57:12;65.60;;;53.47;;
3811;SDS011;1921;49.368;11.068;2022-08-01T10:59:49;64.50;;;53.80;;
3811;SDS011;1921;49.368;11.068;2022-08-01T11:02:30;65.57;;;53.90;;
3811;SDS011;1921;49.368;11.068;2022-08-01T11:05:01;64.40;;;53.80;;
3811;SDS011;1921;49.368;11.068;2022-08-01T11:10:46;64.23;;;53.77;;
3811;SDS011;1921;49.368;11.068;2022-08-01T11:13:12;64.87;;;53.77;;
3811;SDS011;1921;49.368;11.068;2022-08-01T11:15:39;65.00;;;54.00;;
3811;SDS011;1921;49.368;11.068;2022-08-01T11:20:57;63.60;;;53.20;;
3811;SDS011;1921;49.368;11.068;2022-08-01T11:23:28;64.97;;;53.60;;
3811;SDS011;1921;49.368;11.068;2022-08-01T11:28:21;64.00;;;53.53;;
3811;SDS011;1921;49.368;11.068;2022-08-01T11:30:53;63.57;;;53.40;;
3811;SDS011;1921;49.368;11.068;2022-08-01T11:33:47;64.47;;;53.90;;
3811;SDS011;1921;49.368;11.068;2022-08-01T11:38:43;65.10;;;53.88;;
3811;SDS011;1921;49.368;11.068;2022-08-01T11:52:27;64.20;;;53.47;;
3811;SDS011;1921;49.368;11.068;2022-08-01T11:57:26;64.90;;;53.80;;
3811;SDS011;1921;49.368;11.068;2022-08-01T12:00:00;64.20;;;53.80;;
3811;SDS011;1921;49.368;11.068;2022-08-01T12:02:34;65.27;;;54.10;;
3811;SDS011;1921;49.368;11.068;2022-08-01T12:05:01;67.60;;;53.80;;
3811;SDS011;1921;49.368;11.068;2022-08-01T12:07:28;63.80;;;53.30;;
3811;SDS011;1921;49.368;11.068;2022-08-01T12:10:07;65.57;;;53.57;;
3811;SDS011;1921;49.368;11.068;2022-08-01T12:12:35;64.80;;;53.50;;
3811;SDS011;1921;49.368;11.068;2022-08-01T12:15:06;64.03;;;53.10;;
3811;SDS011;1921;49.368;11.068;2022-08-01T12:17:38;63.10;;;53.00;;
3811;SDS011;1921;49.368;11.068;2022-08-01T12:20:11;63.90;;;53.37;;
3811;SDS011;1921;49.368;11.068;2022-08-01T12:22:39;65.10;;;53.45;;
3811;SDS011;1921;49.368;11.068;2022-08-01T12:25:12;64.75;;;53.53;;
3811;SDS011;1921;49.368;11.068;2022-08-01T12:27:41;64.10;;;53.33;;
3811;SDS011;1921;49.368;11.068;2022-08-01T12:30:14;65.60;;;53.97;;
3811;SDS011;1921;49.368;11.068;2022-08-01T12:32:49;63.80;;;53.40;;
3811;SDS011;1921;49.368;11.068;2022-08-01T12:35:17;68.07;;;53.47;;
3811;SDS011;1921;49.368;11.068;2022-08-01T12:37:48;63.97;;;53.50;;
3811;SDS011;1921;49.368;11.068;2022-08-01T12:40:22;63.63;;;53.10;;
3811;SDS011;1921;49.368;11.068;2022-08-01T12:42:52;65.10;;;53.43;;
3811;SDS011;1921;49.368;11.068;2022-08-01T12:45:28;64.30;;;53.40;;
3811;SDS011;1921;49.368;11.068;2022-08-01T12:48:08;63.27;;;53.10;;
3811;SDS011;1921;49.368;11.068;2022-08-01T12:50:40;64.43;;;53.10;;
3811;SDS011;1921;49.368;11.068;2022-08-01T12:53:09;64.10;;;53.67;;
3811;SDS011;1921;49.368;11.068;2022-08-01T12:55:45;63.50;;;53.10;;
3811;SDS011;1921;49.368;11.068;2022-08-01T12:58:14;64.43;;;53.27;;
3811;SDS011;1921;49.368;11.068;2022-08-01T13:00:43;65.33;;;53.80;;
3811;SDS011;1921;49.368;11.068;2022-08-01T13:03:12;63.80;;;53.67;;
3811;SDS011;1921;49.368;11.068;2022-08-01T13:05:47;65.00;;;53.90;;
3811;SDS011;1921;49.368;11.068;2022-08-01T13:08:22;64.45;;;53.80;;
3811;SDS011;1921;49.368;11.068;2022-08-01T13:11:04;66.18;;;54.55;;
3811;SDS011;1921;49.368;11.068;2022-08-01T13:13:48;66.53;;;54.65;;
3811;SDS011;1921;49.368;11.068;2022-08-01T13:16:20;67.38;;;54.15;;
3811;SDS011;1921;49.368;11.068;2022-08-01T13:18:49;64.17;;;53.67;;
3811;SDS011;1921;49.368;11.068;2022-08-01T13:21:22;64.20;;;53.90;;
3811;SDS011;1921;49.368;11.068;2022-08-01T13:29:18;64.90;;;53.83;;
3811;SDS011;1921;49.368;11.068;2022-08-01T13:31:47;64.07;;;53.57;;
3811;SDS011;1921;49.368;11.068;2022-08-01T13:34:14;64.27;;;53.37;;
3811;SDS011;1921;49.368;11.068;2022-08-01T13:36:40;66.97;;;53.67;;
3811;SDS011;1921;49.368;11.068;2022-08-01T13:39:06;65.60;;;54.38;;
3811;SDS011;1921;49.368;11.068;2022-08-01T13:41:51;65.28;;;54.13;;
3811;SDS011;1921;49.368;11.068;2022-08-01T13:44:17;64.37;;;53.77;;
3811;SDS011;1921;49.368;11.068;2022-08-01T13:46:44;68.77;;;53.80;;
3811;SDS011;1921;49.368;11.068;2022-08-01T13:49:12;64.77;;;54.00;;
3811;SDS011;1921;49.368;11.068;2022-08-01T13:51:38;64.80;;;53.80;;
3811;SDS011;1921;49.368;11.068;2022-08-01T13:54:05;64.63;;;53.58;;
3811;SDS011;1921;49.368;11.068;2022-08-01T13:56:31;64.83;;;53.90;;
3811;SDS011;1921;49.368;11.068;2022-08-01T13:58:57;65.45;;;54.08;;
3811;SDS011;1921;49.368;11.068;2022-08-01T14:01:23;64.78;;;54.15;;
3811;SDS011;1921;49.368;11.068;2022-08-01T14:03:50;64.97;;;53.97;;
3811;SDS011;1921;49.368;11.068;2022-08-01T14:06:17;66.47;;;54.42;;
3811;SDS011;1921;49.368;11.068;2022-08-01T14:08:45;65.50;;;54.00;;
3811;SDS011;1921;49.368;11.068;2022-08-01T14:11:11;66.25;;;53.97;;
3811;SDS011;1921;49.368;11.068;2022-08-01T14:13:37;80.63;;;53.65;;
3811;SDS011;1921;49.368;11.068;2022-08-01T14:16:04;64.30;;;53.90;;
3811;SDS011;1921;49.368;11.068;2022-08-01T14:18:31;63.70;;;53.13;;
3811;SDS011;1921;49.368;11.068;2022-08-01T14:20:57;64.60;;;53.90;;
3811;SDS011;1921;49.368;11.068;2022-08-01T14:23:24;64.78;;;53.50;;
3811;SDS011;1921;49.368;11.068;2022-08-01T14:25:50;65.00;;;53.37;;
3811;SDS011;1921;49.368;11.068;2022-08-01T14:28:16;65.23;;;53.50;;
3811;SDS011;1921;49.368;11.068;2022-08-01T14:30:56;64.50;;;53.40;;
3811;SDS011;1921;49.368;11.068;2022-08-01T14:33:22;65.00;;;53.37;;
3811;SDS011;1921;49.368;11.068;2022-08-01T14:35:49;63.67;;;53.30;;
3811;SDS011;1921;49.368;11.068;2022-08-01T14:38:14;63.47;;;53.30;;
3811;SDS011;1921;49.368;11.068;2022-08-01T14:40:40;63.97;;;53.70;;
3811;SDS011;1921;49.368;11.068;2022-08-01T14:43:06;64.60;;;53.87;;
3811;SDS011;1921;49.368;11.068;2022-08-01T14:45:32;63.60;;;53.40;;
3811;SDS011;1921;49.368;11.068;2022-08-01T14:47:58;65.77;;;54.00;;
3811;SDS011;1921;49.368;11.068;2022-08-01T14:50:24;64.97;;;53.90;;
3811;SDS011;1921;49.368;11.068;2022-08-01T14:52:51;64.57;;;53.60;;
3811;SDS011;1921;49.368;11.068;2022-08-01T14:55:17;64.55;;;53.70;;
3811;SDS011;1921;49.368;11.068;2022-08-01T14:57:46;64.10;;;53.63;;
3811;SDS011;1921;49.368;11.068;2022-08-01T15:00:12;64.50;;;53.70;;
3811;SDS011;1921;49.368;11.068;2022-08-01T15:02:38;64.40;;;53.85;;
3811;SDS011;1921;49.368;11.068;2022-08-01T15:05:04;63.90;;;53.33;;
3811;SDS011;1921;49.368;11.068;2022-08-01T15:07:31;66.65;;;53.83;;
3811;SDS011;1921;49.368;11.068;2022-08-01T15:09:57;63.95;;;53.58;;
3811;SDS011;1921;49.368;11.068;2022-08-01T15:12:23;64.72;;;53.83;;
3811;SDS011;1921;49.368;11.068;2022-08-01T15:14:49;67.60;;;54.05;;
3811;SDS011;1921;49.368;11.068;2022-08-01T15:17:20;65.20;;;53.50;;
3811;SDS011;1921;49.368;11.068;2022-08-01T15:19:47;67.93;;;53.43;;
3811;SDS011;1921;49.368;11.068;2022-08-01T15:22:16;64.00;;;53.43;;
3811;SDS011;1921;49.368;11.068;2022-08-01T15:24:42;65.10;;;54.03;;
3811;SDS011;1921;49.368;11.068;2022-08-01T15:27:08;65.40;;;53.80;;